TimeEDT,TemperatureF,Dew PointF,Humidity,Sea Level PressureIn,VisibilityMPH,Wind Direction,Wind SpeedMPH,Gust SpeedMPH,PrecipitationIn,Events,Conditions,WindDirDegrees,DateUTC
12:51 AM,43.0,28.0,56,30.03,10.0,West,16.1,23.0,N/A,,Partly Cloudy,280,2013-10-25 04:51:00
1:51 AM,43.0,28.0,56,30.04,10.0,West,13.8,-,N/A,,Clear,280,2013-10-25 05:51:00
2:51 AM,42.1,28.0,58,30.04,10.0,West,15.0,-,N/A,,Clear,270,2013-10-25 06:51:00
3:51 AM,42.1,28.0,58,30.04,10.0,West,15.0,-,N/A,,Clear,270,2013-10-25 07:51:00
4:51 AM,39.9,28.9,65,30.06,10.0,West,15.0,-,N/A,,Clear,270,2013-10-25 08:51:00
5:51 AM,39.0,30.0,70,30.08,10.0,West,11.5,-,N/A,,Clear,280,2013-10-25 09:51:00
6:51 AM,39.0,28.9,67,30.09,10.0,West,12.7,-,N/A,,Partly Cloudy,280,2013-10-25 10:51:00
7:51 AM,39.9,28.9,65,30.11,10.0,West,10.4,-,N/A,,Scattered Clouds,280,2013-10-25 11:51:00
8:51 AM,42.1,28.9,60,30.14,10.0,NW,15.0,-,N/A,,Scattered Clouds,310,2013-10-25 12:51:00
9:51 AM,44.1,31.1,60,30.14,10.0,NW,13.8,21.9,N/A,,Scattered Clouds,320,2013-10-25 13:51:00
10:51 AM,46.9,27.0,46,30.14,10.0,WNW,15.0,-,N/A,,Scattered Clouds,300,2013-10-25 14:51:00
11:51 AM,48.9,28.0,44,30.15,10.0,West,12.7,-,N/A,,Mostly Cloudy,270,2013-10-25 15:51:00
12:51 PM,51.1,28.9,43,30.14,10.0,WNW,15.0,-,N/A,,Mostly Cloudy,290,2013-10-25 16:51:00
1:51 PM,54.0,28.0,37,30.12,10.0,West,16.1,24.2,N/A,,Mostly Cloudy,280,2013-10-25 17:51:00
2:51 PM,54.0,26.1,34,30.12,10.0,WNW,18.4,27.6,N/A,,Mostly Cloudy,300,2013-10-25 18:51:00
3:51 PM,54.0,25.0,33,30.13,10.0,NW,19.6,27.6,N/A,,Mostly Cloudy,320,2013-10-25 19:51:00
4:51 PM,53.1,23.0,31,30.13,10.0,NW,15.0,27.6,N/A,,Mostly Cloudy,310,2013-10-25 20:51:00
5:51 PM,52.0,21.9,31,30.15,10.0,NW,17.3,24.2,N/A,,Scattered Clouds,310,2013-10-25 21:51:00
6:51 PM,51.1,24.1,35,30.18,10.0,NW,10.4,-,N/A,,Partly Cloudy,310,2013-10-25 22:51:00
7:51 PM,50.0,25.0,38,30.20,10.0,WNW,9.2,-,N/A,,Partly Cloudy,290,2013-10-25 23:51:00
8:51 PM,48.9,27.0,43,30.21,10.0,West,8.1,-,N/A,,Partly Cloudy,280,2013-10-26 00:51:00
9:51 PM,46.9,30.0,52,30.23,10.0,West,10.4,-,N/A,,Partly Cloudy,280,2013-10-26 01:51:00
10:51 PM,44.1,30.9,60,30.24,10.0,WNW,10.4,-,N/A,,Partly Cloudy,290,2013-10-26 02:51:00
11:51 PM,35.1,30.9,85,30.24,10.0,WNW,8.1,-,N/A,,Partly Cloudy,300,2013-10-26 03:51:00